createdAt,value
2018-06-30T00:01:15.096Z,20.40
2018-06-30T00:03:48.999Z,20.40
2018-06-30T00:06:17.562Z,20.40
2018-06-30T00:08:46.098Z,20.40
2018-06-30T00:11:14.656Z,20.30
2018-06-30T00:13:43.166Z,20.30
2018-06-30T00:16:11.731Z,20.30
2018-06-30T00:18:40.551Z,20.20
2018-06-30T00:21:09.579Z,20.20
2018-06-30T00:23:38.432Z,20.20
2018-06-30T00:26:07.413Z,20.20
2018-06-30T00:28:35.983Z,20.20
2018-06-30T00:31:04.724Z,20.20
2018-06-30T00:33:33.309Z,20.20
2018-06-30T00:36:01.892Z,20.10
2018-06-30T00:38:30.413Z,20.10
2018-06-30T00:40:59.060Z,20.10
2018-06-30T00:43:27.605Z,20.10
2018-06-30T00:45:56.102Z,20.10
2018-06-30T00:48:24.649Z,20.00
2018-06-30T00:53:21.383Z,20.10
2018-06-30T00:55:49.981Z,20.00
2018-06-30T00:58:18.566Z,20.00
2018-06-30T01:00:47.193Z,19.90
2018-06-30T01:03:15.771Z,19.90
2018-06-30T01:05:44.367Z,19.90
2018-06-30T01:08:12.914Z,19.90
2018-06-30T01:13:09.656Z,19.80
2018-06-30T01:15:38.127Z,19.80
2018-06-30T01:18:06.711Z,19.80
2018-06-30T01:20:35.257Z,19.80
2018-06-30T01:23:03.811Z,19.70
2018-06-30T01:25:32.523Z,19.70
2018-06-30T01:28:01.051Z,19.70
2018-06-30T01:30:29.536Z,19.60
2018-06-30T01:32:58.047Z,19.70
2018-06-30T01:35:26.615Z,19.60
2018-06-30T01:37:55.231Z,19.60
2018-06-30T01:40:23.927Z,19.60
2018-06-30T01:42:52.475Z,19.60
2018-06-30T01:45:21.006Z,19.60
2018-06-30T01:47:49.499Z,19.60
2018-06-30T01:50:18.887Z,19.50
2018-06-30T01:52:47.374Z,19.50
2018-06-30T01:55:16.213Z,19.50
2018-06-30T01:57:44.718Z,19.50
2018-06-30T02:00:13.321Z,19.50
2018-06-30T02:02:41.814Z,19.50
2018-06-30T02:05:10.341Z,19.50
2018-06-30T02:07:38.843Z,19.50
2018-06-30T02:10:12.579Z,19.40
2018-06-30T02:12:41.263Z,19.50
2018-06-30T02:15:09.931Z,19.40
2018-06-30T02:17:38.455Z,19.40
2018-06-30T02:20:07.035Z,19.40
2018-06-30T02:22:35.568Z,19.40
2018-06-30T02:25:04.175Z,19.40
2018-06-30T02:27:32.850Z,19.40
2018-06-30T02:30:01.408Z,19.40
2018-06-30T02:34:58.102Z,19.40
2018-06-30T02:37:26.648Z,19.40
2018-06-30T02:39:55.116Z,19.40
2018-06-30T02:42:23.648Z,19.40
2018-06-30T02:44:52.131Z,19.40
2018-06-30T02:47:20.687Z,19.30
2018-06-30T02:49:49.211Z,19.40
2018-06-30T02:52:17.797Z,19.40
2018-06-30T02:54:46.379Z,19.40
2018-06-30T02:57:14.909Z,19.40
2018-06-30T03:02:11.659Z,19.40
2018-06-30T03:04:40.125Z,19.40
2018-06-30T03:07:08.683Z,19.30
2018-06-30T03:09:37.170Z,19.30
2018-06-30T03:12:05.714Z,19.30
2018-06-30T03:14:34.293Z,19.30
2018-06-30T03:17:02.861Z,19.20
2018-06-30T03:19:31.387Z,19.20
2018-06-30T03:21:59.878Z,19.20
2018-06-30T03:24:28.405Z,19.20
2018-06-30T03:26:56.942Z,19.20
2018-06-30T03:29:25.502Z,19.20
2018-06-30T03:31:54.015Z,19.20
2018-06-30T03:34:22.570Z,19.20
2018-06-30T03:36:51.155Z,19.20
2018-06-30T03:39:19.707Z,19.20
2018-06-30T03:41:48.606Z,19.20
2018-06-30T03:44:17.167Z,19.20
2018-06-30T03:46:45.667Z,19.20
2018-06-30T03:49:14.211Z,19.20
2018-06-30T03:51:42.768Z,19.30
2018-06-30T03:54:11.303Z,19.20
2018-06-30T03:56:39.971Z,19.20
2018-06-30T03:59:08.569Z,19.20
2018-06-30T04:01:37.032Z,19.20
2018-06-30T04:04:05.582Z,19.20
2018-06-30T04:06:34.091Z,19.30
2018-06-30T04:09:02.649Z,19.30
2018-06-30T04:11:31.130Z,19.30
2018-06-30T04:13:59.650Z,19.40
2018-06-30T04:16:28.143Z,19.40
2018-06-30T04:19:00.871Z,19.50
2018-06-30T04:21:29.387Z,19.50
2018-06-30T04:23:57.886Z,19.50
2018-06-30T04:26:26.440Z,19.60
2018-06-30T04:28:54.947Z,19.70
2018-06-30T04:31:23.506Z,19.70
2018-06-30T04:33:52.026Z,19.70
2018-06-30T04:36:20.570Z,19.70
2018-06-30T04:38:49.030Z,19.80
2018-06-30T04:41:17.587Z,19.80
2018-06-30T04:43:46.094Z,19.80
2018-06-30T04:46:14.622Z,19.80
2018-06-30T04:48:43.118Z,19.80
2018-06-30T04:51:11.754Z,19.80
2018-06-30T04:53:41.130Z,19.80
2018-06-30T04:56:09.782Z,19.90
2018-06-30T04:58:38.307Z,19.80
2018-06-30T05:01:06.867Z,19.90
2018-06-30T05:03:35.362Z,19.90
2018-06-30T05:06:03.963Z,19.90
2018-06-30T05:08:32.462Z,19.90
2018-06-30T05:11:01.034Z,20.00
2018-06-30T05:13:29.607Z,20.00
2018-06-30T05:15:58.162Z,20.00
2018-06-30T05:18:26.780Z,20.10
2018-06-30T05:20:55.380Z,20.10
2018-06-30T05:23:23.987Z,20.20
2018-06-30T05:25:52.634Z,20.40
2018-06-30T05:28:21.272Z,20.60
2018-06-30T05:30:49.745Z,20.60
2018-06-30T05:33:18.289Z,20.70
2018-06-30T05:35:46.746Z,20.70
2018-06-30T05:38:15.315Z,20.80
2018-06-30T05:43:12.721Z,20.80
2018-06-30T05:45:41.284Z,20.80
2018-06-30T05:48:09.899Z,20.90
2018-06-30T05:50:38.662Z,20.90
2018-06-30T05:53:07.236Z,20.90
2018-06-30T05:55:35.728Z,21.00
2018-06-30T05:58:06.504Z,21.10
2018-06-30T06:00:35.123Z,21.10
2018-06-30T06:03:03.736Z,21.00
2018-06-30T06:05:32.343Z,21.00
2018-06-30T06:08:01.891Z,21.00
2018-06-30T06:10:30.603Z,21.00
2018-06-30T06:12:59.176Z,21.00
2018-06-30T06:17:55.943Z,21.10
2018-06-30T06:20:24.573Z,21.10
2018-06-30T06:22:53.235Z,21.10
2018-06-30T06:25:21.890Z,21.10
2018-06-30T06:27:50.408Z,21.10
2018-06-30T06:30:18.961Z,21.00
2018-06-30T06:32:47.533Z,21.00
2018-06-30T06:35:16.028Z,21.10
2018-06-30T06:37:44.489Z,21.20
2018-06-30T06:40:13.030Z,21.10
2018-06-30T06:42:41.492Z,21.20
2018-06-30T06:45:10.060Z,21.20
2018-06-30T06:47:38.525Z,21.30
2018-06-30T06:50:07.324Z,21.30
2018-06-30T06:52:35.852Z,21.30
2018-06-30T06:55:04.516Z,21.30
2018-06-30T06:57:33.061Z,21.30
2018-06-30T07:00:01.879Z,21.20
2018-06-30T07:02:30.374Z,21.20
2018-06-30T07:04:58.954Z,21.20
2018-06-30T07:07:27.441Z,21.10
2018-06-30T07:09:55.926Z,21.00
2018-06-30T07:12:24.454Z,20.90
2018-06-30T07:14:53.150Z,20.90
2018-06-30T07:17:21.942Z,20.90
2018-06-30T07:19:50.451Z,21.00
2018-06-30T07:22:18.976Z,20.90
2018-06-30T07:24:47.586Z,20.80
2018-06-30T07:27:16.114Z,20.80
2018-06-30T07:29:44.675Z,20.80
2018-06-30T07:32:13.198Z,20.70
2018-06-30T07:34:41.720Z,20.60
2018-06-30T07:37:10.292Z,20.70
2018-06-30T07:39:38.729Z,20.70
2018-06-30T07:42:07.291Z,20.70
2018-06-30T07:44:35.962Z,20.80
2018-06-30T07:47:04.511Z,20.80
2018-06-30T07:49:33.033Z,20.70
2018-06-30T07:52:02.063Z,20.60
2018-06-30T07:54:30.634Z,20.60
2018-06-30T07:56:59.184Z,20.70
2018-06-30T07:59:27.727Z,20.70
2018-06-30T08:01:56.279Z,20.60
2018-06-30T08:04:24.819Z,20.60
2018-06-30T08:09:21.498Z,20.40
2018-06-30T08:11:50.016Z,20.30
2018-06-30T08:14:18.555Z,20.20
2018-06-30T08:16:47.071Z,20.20
2018-06-30T08:19:15.602Z,20.20
2018-06-30T08:21:44.146Z,20.20
2018-06-30T08:24:12.699Z,20.20
2018-06-30T08:26:41.207Z,20.30
2018-06-30T08:29:09.810Z,20.30
2018-06-30T08:31:38.371Z,20.30
2018-06-30T08:34:06.964Z,20.30
2018-06-30T08:36:35.577Z,20.20
2018-06-30T08:39:06.797Z,20.00
2018-06-30T08:41:35.401Z,19.80
2018-06-30T08:44:04.151Z,19.70
2018-06-30T08:46:32.847Z,19.50
2018-06-30T08:49:01.395Z,19.40
2018-06-30T08:51:29.923Z,19.30
2018-06-30T08:53:58.431Z,19.30
2018-06-30T08:56:27.007Z,19.30
2018-06-30T08:58:55.549Z,19.30
2018-06-30T09:01:24.620Z,19.20
2018-06-30T09:06:21.798Z,19.10
2018-06-30T09:11:18.455Z,19.00
2018-06-30T09:13:46.947Z,19.00
2018-06-30T09:16:15.635Z,18.90
2018-06-30T09:18:44.139Z,19.00
2018-06-30T09:21:12.719Z,19.00
2018-06-30T09:23:41.288Z,19.10
2018-06-30T09:26:09.854Z,19.10
2018-06-30T09:28:38.400Z,19.10
2018-06-30T09:31:07.113Z,19.10
2018-06-30T09:33:35.638Z,19.10
2018-06-30T09:36:04.206Z,19.10
2018-06-30T09:38:32.702Z,19.10
2018-06-30T09:41:01.291Z,19.10
2018-06-30T09:43:29.834Z,19.10
2018-06-30T09:45:58.389Z,19.20
2018-06-30T09:48:26.924Z,19.20
2018-06-30T09:50:55.574Z,19.20
2018-06-30T09:53:24.081Z,19.30
2018-06-30T09:55:53.959Z,19.30
2018-06-30T09:58:22.540Z,19.30
2018-06-30T10:00:55.367Z,19.40
2018-06-30T10:03:24.682Z,19.50
2018-06-30T10:05:53.190Z,19.60
2018-06-30T10:08:21.754Z,19.70
2018-06-30T10:10:50.244Z,19.80
2018-06-30T10:13:18.762Z,19.90
2018-06-30T10:15:47.370Z,19.90
2018-06-30T10:18:15.914Z,20.10
2018-06-30T10:20:44.723Z,20.10
2018-06-30T10:23:13.226Z,20.20
2018-06-30T10:25:41.792Z,20.40
2018-06-30T10:28:10.855Z,20.60
2018-06-30T10:30:40.288Z,20.60
2018-06-30T10:33:09.342Z,20.80
2018-06-30T10:35:37.889Z,20.80
2018-06-30T10:38:06.481Z,20.80
2018-06-30T10:40:36.374Z,20.90
2018-06-30T10:43:04.930Z,21.10
2018-06-30T10:45:33.464Z,21.10
2018-06-30T10:48:01.955Z,21.20
2018-06-30T10:50:30.864Z,21.30
2018-06-30T10:52:59.385Z,21.50
2018-06-30T10:55:27.994Z,21.60
2018-06-30T10:57:56.467Z,21.50
2018-06-30T11:00:25.160Z,21.70
2018-06-30T11:02:53.596Z,21.90
2018-06-30T11:05:22.142Z,22.00
2018-06-30T11:07:50.683Z,22.00
2018-06-30T11:10:19.299Z,21.90
2018-06-30T11:12:47.851Z,22.00
2018-06-30T11:15:16.455Z,22.00
2018-06-30T11:17:44.938Z,22.20
2018-06-30T11:20:13.731Z,22.20
2018-06-30T11:22:42.170Z,22.20
2018-06-30T11:25:11.011Z,22.00
2018-06-30T11:27:39.618Z,21.80
2018-06-30T11:30:08.238Z,22.00
2018-06-30T11:32:38.382Z,21.90
2018-06-30T11:35:07.778Z,22.10
2018-06-30T11:37:36.449Z,22.20
2018-06-30T11:40:05.108Z,22.50
2018-06-30T11:42:33.660Z,22.80
2018-06-30T11:45:02.163Z,23.00
2018-06-30T11:47:30.750Z,23.10
2018-06-30T11:49:59.279Z,23.20
2018-06-30T11:52:27.819Z,23.20
2018-06-30T11:54:56.638Z,23.50
2018-06-30T11:57:25.298Z,23.60
2018-06-30T11:59:53.858Z,23.60
2018-06-30T12:02:22.421Z,23.70
2018-06-30T12:04:50.956Z,23.90
2018-06-30T12:07:19.806Z,24.10
2018-06-30T12:09:48.514Z,24.00
2018-06-30T12:12:17.388Z,24.00
2018-06-30T12:14:46.094Z,23.90
2018-06-30T12:17:14.870Z,23.90
2018-06-30T12:19:43.770Z,23.90
2018-06-30T12:22:12.368Z,23.90
2018-06-30T12:24:40.864Z,23.90
2018-06-30T12:27:09.486Z,24.00
2018-06-30T12:29:38.066Z,23.80
2018-06-30T12:32:06.838Z,24.00
2018-06-30T12:34:35.261Z,23.90
2018-06-30T12:37:03.805Z,23.80
2018-06-30T12:39:32.353Z,23.70
2018-06-30T12:42:00.994Z,23.80
2018-06-30T12:44:30.275Z,23.90
2018-06-30T12:46:58.863Z,23.90
2018-06-30T12:49:27.369Z,23.80
2018-06-30T12:51:56.130Z,23.60
2018-06-30T12:54:24.730Z,23.70
2018-06-30T12:56:53.227Z,23.70
2018-06-30T12:59:21.819Z,24.00
2018-06-30T13:01:50.546Z,23.60
2018-06-30T13:04:19.160Z,23.60
2018-06-30T13:06:47.657Z,23.60
2018-06-30T13:09:16.236Z,23.50
2018-06-30T13:11:44.698Z,23.70
2018-06-30T13:14:13.321Z,23.90
2018-06-30T13:16:41.986Z,23.90
2018-06-30T13:19:10.769Z,23.70
2018-06-30T13:21:39.678Z,23.70
2018-06-30T13:24:08.403Z,23.80
2018-06-30T13:26:37.044Z,24.00
2018-06-30T13:29:05.928Z,23.70
2018-06-30T13:31:34.459Z,23.70
2018-06-30T13:34:05.080Z,23.70
2018-06-30T13:36:33.614Z,23.70
2018-06-30T13:39:02.223Z,23.80
2018-06-30T13:41:30.809Z,23.70
2018-06-30T13:43:59.410Z,23.90
2018-06-30T13:46:28.039Z,23.80
2018-06-30T13:48:57.061Z,23.80
2018-06-30T13:51:25.637Z,23.80
2018-06-30T13:53:54.550Z,23.90
2018-06-30T13:56:23.150Z,23.80
2018-06-30T13:58:51.746Z,23.60
2018-06-30T14:01:20.340Z,23.60
2018-06-30T14:06:17.073Z,23.50
2018-06-30T14:08:45.666Z,23.50
2018-06-30T14:11:14.187Z,23.50
2018-06-30T14:13:42.682Z,23.40
2018-06-30T14:16:11.254Z,23.40
2018-06-30T14:18:39.780Z,23.50
2018-06-30T14:21:08.356Z,23.50
2018-06-30T14:23:36.886Z,23.50
2018-06-30T14:26:05.566Z,23.50
2018-06-30T14:28:34.146Z,23.50
2018-06-30T14:31:02.756Z,23.40
2018-06-30T14:33:31.274Z,23.10
2018-06-30T14:35:59.802Z,22.90
2018-06-30T14:38:28.930Z,22.90
2018-06-30T14:40:57.522Z,22.80
2018-06-30T14:43:26.029Z,22.80
2018-06-30T14:45:54.602Z,22.80
2018-06-30T14:48:23.150Z,22.80
2018-06-30T14:50:51.658Z,22.90
2018-06-30T14:53:20.230Z,22.80
2018-06-30T14:55:48.914Z,22.60
2018-06-30T14:58:17.536Z,22.50
2018-06-30T15:00:46.077Z,22.60
2018-06-30T15:03:14.856Z,22.60
2018-06-30T15:05:43.366Z,22.60
2018-06-30T15:08:11.978Z,22.70
2018-06-30T15:10:40.458Z,22.30
2018-06-30T15:13:09.006Z,22.50
2018-06-30T15:15:37.549Z,22.40
2018-06-30T15:20:34.330Z,22.30
2018-06-30T15:23:03.398Z,22.30
2018-06-30T15:25:31.902Z,22.20
2018-06-30T15:28:00.440Z,22.10
2018-06-30T15:30:28.968Z,22.20
2018-06-30T15:32:57.503Z,22.10
2018-06-30T15:35:26.015Z,22.00
2018-06-30T15:37:54.579Z,22.00
2018-06-30T15:40:23.090Z,21.90
2018-06-30T15:42:51.659Z,21.90
2018-06-30T15:45:20.176Z,21.80
2018-06-30T15:47:48.699Z,21.80
2018-06-30T15:50:17.214Z,21.80
2018-06-30T15:52:45.682Z,21.70
2018-06-30T15:55:14.200Z,21.80
2018-06-30T15:57:42.710Z,21.70
2018-06-30T16:00:11.931Z,21.60
2018-06-30T16:02:40.435Z,21.50
2018-06-30T16:05:09.016Z,21.50
2018-06-30T16:07:37.533Z,21.50
2018-06-30T16:10:06.077Z,21.40
2018-06-30T16:12:34.606Z,21.40
2018-06-30T16:15:03.268Z,21.40
2018-06-30T16:17:31.769Z,21.40
2018-06-30T16:20:00.276Z,21.40
2018-06-30T16:22:28.795Z,21.30
2018-06-30T16:24:57.263Z,21.30
2018-06-30T16:27:25.797Z,21.20
2018-06-30T16:29:54.452Z,21.20
2018-06-30T16:32:22.960Z,21.20
2018-06-30T16:34:51.466Z,21.10
2018-06-30T16:37:20.017Z,21.10
2018-06-30T16:39:48.833Z,21.10
2018-06-30T16:42:17.382Z,21.00
2018-06-30T16:44:45.900Z,21.00
2018-06-30T16:47:16.041Z,21.00
2018-06-30T16:49:44.581Z,20.80
2018-06-30T16:52:13.159Z,20.80
2018-06-30T16:54:41.755Z,20.70
2018-06-30T16:57:10.335Z,20.70
2018-06-30T16:59:38.972Z,20.60
2018-06-30T17:02:07.764Z,20.50
2018-06-30T17:04:36.268Z,20.50
2018-06-30T17:07:04.804Z,20.50
2018-06-30T17:09:33.480Z,20.40
2018-06-30T17:12:01.958Z,20.40
2018-06-30T17:14:30.473Z,20.40
2018-06-30T17:16:59.046Z,20.40
2018-06-30T17:19:27.604Z,20.30
2018-06-30T17:21:56.146Z,20.30
2018-06-30T17:24:24.778Z,20.20
2018-06-30T17:26:53.685Z,20.10
2018-06-30T17:29:22.170Z,20.10
2018-06-30T17:31:50.674Z,19.90
2018-06-30T17:36:47.526Z,19.70
2018-06-30T17:39:16.106Z,19.70
2018-06-30T17:41:44.582Z,19.60
2018-06-30T17:44:13.126Z,19.60
2018-06-30T17:46:41.617Z,19.60
2018-06-30T17:49:10.201Z,19.40
2018-06-30T17:51:38.730Z,19.40
2018-06-30T17:54:07.807Z,19.40
2018-06-30T17:56:36.413Z,19.30
2018-06-30T17:59:05.040Z,19.30
2018-06-30T18:01:33.622Z,19.20
2018-06-30T18:04:02.195Z,19.10
2018-06-30T18:06:30.806Z,19.10
2018-06-30T18:08:59.256Z,19.00
2018-06-30T18:11:27.763Z,19.00
2018-06-30T18:13:56.310Z,18.90
2018-06-30T18:16:24.850Z,18.80
2018-06-30T18:18:53.406Z,18.70
2018-06-30T18:21:21.942Z,18.60
2018-06-30T18:23:50.439Z,18.50
2018-06-30T18:26:18.975Z,18.40
2018-06-30T18:28:47.903Z,18.40
2018-06-30T18:31:16.433Z,18.30
2018-06-30T18:33:44.906Z,18.30
2018-06-30T18:36:13.795Z,18.10
2018-06-30T18:38:42.301Z,18.10
2018-06-30T18:41:10.870Z,18.00
2018-06-30T18:43:39.403Z,18.00
2018-06-30T18:46:08.011Z,17.90
2018-06-30T18:48:36.536Z,17.90
2018-06-30T18:51:05.278Z,17.80
2018-06-30T18:53:34.169Z,17.80
2018-06-30T18:56:02.874Z,17.70
2018-06-30T18:58:31.462Z,17.60
2018-06-30T19:01:00.206Z,17.60
2018-06-30T19:03:28.867Z,17.40
2018-06-30T19:05:57.440Z,17.40
2018-06-30T19:08:26.218Z,17.30
2018-06-30T19:10:55.050Z,17.20
2018-06-30T19:13:23.862Z,17.10
2018-06-30T19:15:52.456Z,17.10
2018-06-30T19:18:22.686Z,17.00
2018-06-30T19:20:55.049Z,16.90
2018-06-30T19:23:25.624Z,16.90
2018-06-30T19:25:56.260Z,16.80
2018-06-30T19:28:26.561Z,16.80
2018-06-30T19:30:56.140Z,16.70
2018-06-30T19:33:26.245Z,16.60
2018-06-30T19:35:56.859Z,16.60
2018-06-30T19:40:54.988Z,16.40
2018-06-30T19:43:24.866Z,16.30
2018-06-30T19:45:53.350Z,16.20
2018-06-30T19:48:22.308Z,16.10
2018-06-30T19:50:50.822Z,16.10
2018-06-30T19:53:19.390Z,16.00
2018-06-30T19:55:47.887Z,15.90
2018-06-30T19:58:16.398Z,15.90
2018-06-30T20:00:44.920Z,15.80
2018-06-30T20:03:13.548Z,15.70
2018-06-30T20:05:42.160Z,15.70
2018-06-30T20:08:10.678Z,15.60
2018-06-30T20:10:39.252Z,15.60
2018-06-30T20:13:07.704Z,15.50
2018-06-30T20:15:36.245Z,15.40
2018-06-30T20:18:04.814Z,15.40
2018-06-30T20:20:33.370Z,15.40
2018-06-30T20:23:01.886Z,15.30
2018-06-30T20:25:30.420Z,15.20
2018-06-30T20:27:58.880Z,15.20
2018-06-30T20:30:27.549Z,15.10
2018-06-30T20:32:55.993Z,15.10
2018-06-30T20:35:24.563Z,15.10
2018-06-30T20:37:53.107Z,15.00
2018-06-30T20:40:21.744Z,14.90
2018-06-30T20:42:50.294Z,14.90
2018-06-30T20:45:18.945Z,14.80
2018-06-30T20:47:47.535Z,14.70
2018-06-30T20:50:16.014Z,14.70
2018-06-30T20:52:44.569Z,14.60
2018-06-30T20:55:13.047Z,14.50
2018-06-30T20:57:41.660Z,14.50
2018-06-30T21:00:12.775Z,14.40
2018-06-30T21:02:41.331Z,14.40
2018-06-30T21:05:09.851Z,14.30
2018-06-30T21:07:38.410Z,14.20
2018-06-30T21:10:06.915Z,14.20
2018-06-30T21:12:35.668Z,14.10
2018-06-30T21:15:04.650Z,14.10
2018-06-30T21:17:33.198Z,14.00
2018-06-30T21:20:01.691Z,14.00
2018-06-30T21:22:30.211Z,13.90
2018-06-30T21:24:58.715Z,13.90
2018-06-30T21:27:27.612Z,13.90
2018-06-30T21:29:56.147Z,13.80
2018-06-30T21:32:24.719Z,13.70
2018-06-30T21:34:53.221Z,13.70
2018-06-30T21:37:21.743Z,13.70
2018-06-30T21:39:50.243Z,13.70
2018-06-30T21:42:18.791Z,13.60
2018-06-30T21:44:47.287Z,13.60
2018-06-30T21:47:15.798Z,13.60
2018-06-30T21:49:44.292Z,13.50
2018-06-30T21:52:12.774Z,13.50
2018-06-30T21:54:41.275Z,13.40
2018-06-30T21:57:09.803Z,13.40
2018-06-30T21:59:38.344Z,13.30
2018-06-30T22:02:08.410Z,13.30
2018-06-30T22:04:37.296Z,13.20
2018-06-30T22:07:05.821Z,13.10
2018-06-30T22:09:34.310Z,13.10
2018-06-30T22:12:02.870Z,13.00
2018-06-30T22:14:31.398Z,13.00
2018-06-30T22:16:59.904Z,13.00
2018-06-30T22:19:28.432Z,12.90
2018-06-30T22:21:56.914Z,12.90
2018-06-30T22:24:25.514Z,12.80
2018-06-30T22:26:54.210Z,12.80
2018-06-30T22:29:22.748Z,12.80
2018-06-30T22:31:51.204Z,12.70
2018-06-30T22:34:19.740Z,12.70
2018-06-30T22:36:48.289Z,12.60
2018-06-30T22:39:27.582Z,12.60
2018-06-30T22:41:56.087Z,12.60
2018-06-30T22:44:24.660Z,12.50
2018-06-30T22:46:53.227Z,12.50
2018-06-30T22:49:21.796Z,12.50
2018-06-30T22:51:50.424Z,12.50
2018-06-30T22:54:18.991Z,12.50
2018-06-30T22:56:47.462Z,12.40
2018-06-30T22:59:15.989Z,12.40
2018-06-30T23:01:44.580Z,12.40
2018-06-30T23:04:13.093Z,12.40
2018-06-30T23:06:41.646Z,12.30
2018-06-30T23:09:12.704Z,12.30
2018-06-30T23:11:41.246Z,12.30
2018-06-30T23:14:09.722Z,12.30
2018-06-30T23:16:38.286Z,12.30
2018-06-30T23:19:06.781Z,12.20
2018-06-30T23:21:35.326Z,12.20
2018-06-30T23:24:03.844Z,12.20
2018-06-30T23:26:32.295Z,12.20
2018-06-30T23:29:00.806Z,12.20
2018-06-30T23:31:29.278Z,12.20
2018-06-30T23:33:57.813Z,12.10
2018-06-30T23:36:26.290Z,12.10
2018-06-30T23:38:54.835Z,12.10
2018-06-30T23:41:23.298Z,12.00
2018-06-30T23:43:52.414Z,12.00
2018-06-30T23:46:20.987Z,12.00
2018-06-30T23:48:49.519Z,12.00
2018-06-30T23:51:18.004Z,11.90
2018-06-30T23:53:46.524Z,11.90
2018-06-30T23:56:15.018Z,11.90
2018-06-30T23:58:43.541Z,11.90
